createdAt,value
2017-07-17T00:01:04.840Z,62.50
2017-07-17T00:03:34.852Z,61.70
2017-07-17T00:06:04.716Z,62.00
2017-07-17T00:08:35.459Z,62.30
2017-07-17T00:11:05.417Z,62.40
2017-07-17T00:13:35.815Z,62.10
2017-07-17T00:16:05.776Z,61.70
2017-07-17T00:18:35.672Z,62.00
2017-07-17T00:21:05.717Z,62.10
2017-07-17T00:23:35.888Z,62.50
2017-07-17T00:26:05.716Z,62.70
2017-07-17T00:28:35.623Z,62.90
2017-07-17T00:31:05.561Z,64.00
2017-07-17T00:33:35.857Z,63.20
2017-07-17T00:36:05.753Z,63.30
2017-07-17T00:38:35.801Z,64.40
2017-07-17T00:41:05.852Z,63.80
2017-07-17T00:43:35.732Z,63.90
2017-07-17T00:46:06.369Z,64.80
2017-07-17T00:48:36.338Z,66.00
2017-07-17T00:51:07.127Z,64.20
2017-07-17T00:53:37.414Z,64.10
2017-07-17T00:56:07.168Z,63.80
2017-07-17T00:58:37.039Z,64.60
2017-07-17T01:01:06.927Z,64.00
2017-07-17T01:03:36.863Z,63.60
2017-07-17T01:06:06.987Z,63.10
2017-07-17T01:08:37.017Z,62.80
2017-07-17T01:11:06.576Z,63.80
2017-07-17T01:13:37.679Z,63.40
2017-07-17T01:16:07.502Z,63.40
2017-07-17T01:18:37.708Z,63.40
2017-07-17T01:21:07.630Z,63.20
2017-07-17T01:23:37.135Z,64.90
2017-07-17T01:26:06.949Z,63.80
2017-07-17T01:28:36.479Z,63.80
2017-07-17T01:31:06.168Z,63.90
2017-07-17T01:33:35.899Z,63.70
2017-07-17T01:36:05.764Z,64.40
2017-07-17T01:38:36.219Z,64.30
2017-07-17T01:41:06.253Z,65.40
2017-07-17T01:43:36.054Z,64.10
2017-07-17T01:46:06.150Z,65.20
2017-07-17T01:48:35.978Z,65.00
2017-07-17T01:51:05.788Z,64.20
2017-07-17T01:53:35.435Z,64.20
2017-07-17T01:56:05.482Z,63.60
2017-07-17T01:58:35.725Z,63.00
2017-07-17T02:01:05.304Z,63.20
2017-07-17T02:03:35.233Z,63.60
2017-07-17T02:06:05.020Z,63.90
2017-07-17T02:08:34.924Z,63.40
2017-07-17T02:11:04.902Z,63.60
2017-07-17T02:13:35.284Z,65.60
2017-07-17T02:16:04.999Z,64.80
2017-07-17T02:18:35.285Z,66.40
2017-07-17T02:21:05.188Z,64.90
2017-07-17T02:23:35.087Z,64.40
2017-07-17T02:26:05.794Z,64.90
2017-07-17T02:28:35.280Z,63.50
2017-07-17T02:31:04.802Z,64.00
2017-07-17T02:33:34.608Z,63.70
2017-07-17T02:36:04.569Z,63.60
2017-07-17T02:38:34.842Z,64.00
2017-07-17T02:41:05.164Z,63.20
2017-07-17T02:43:36.016Z,63.20
2017-07-17T02:46:06.081Z,64.10
2017-07-17T02:48:36.156Z,63.80
2017-07-17T02:51:06.414Z,63.60
2017-07-17T02:53:36.382Z,64.10
2017-07-17T02:56:06.232Z,64.00
2017-07-17T02:58:36.836Z,64.70
2017-07-17T03:01:07.120Z,64.20
2017-07-17T03:03:37.027Z,65.00
2017-07-17T03:06:07.333Z,65.00
2017-07-17T03:08:37.533Z,65.10
2017-07-17T03:11:07.888Z,64.60
2017-07-17T03:13:37.993Z,64.80
2017-07-17T03:16:07.919Z,64.60
2017-07-17T03:18:37.869Z,65.50
2017-07-17T03:21:07.907Z,64.40
2017-07-17T03:23:56.079Z,65.10
2017-07-17T03:26:25.624Z,64.90
2017-07-17T03:28:55.408Z,65.50
2017-07-17T03:31:24.963Z,65.10
2017-07-17T03:33:55.228Z,65.30
2017-07-17T03:36:25.871Z,64.60
2017-07-17T03:38:55.944Z,64.40
2017-07-17T03:41:25.891Z,65.00
2017-07-17T03:43:56.378Z,65.00
2017-07-17T03:46:25.871Z,64.80
2017-07-17T03:48:55.432Z,65.20
2017-07-17T03:51:25.227Z,64.90
2017-07-17T03:53:54.737Z,65.80
2017-07-17T03:56:24.248Z,66.00
2017-07-17T03:58:53.803Z,66.50
2017-07-17T04:01:23.310Z,66.20
2017-07-17T04:03:53.302Z,66.00
2017-07-17T04:06:23.110Z,66.30
2017-07-17T04:08:53.267Z,65.30
2017-07-17T04:11:24.226Z,64.40
2017-07-17T04:13:54.842Z,64.60
2017-07-17T04:16:24.904Z,64.60
2017-07-17T04:18:54.886Z,64.30
2017-07-17T04:21:24.492Z,64.00
2017-07-17T04:23:55.635Z,63.30
2017-07-17T04:26:26.120Z,63.30
2017-07-17T04:28:55.632Z,63.30
2017-07-17T04:31:25.445Z,64.00
2017-07-17T04:33:55.015Z,64.20
2017-07-17T04:36:24.519Z,63.90
2017-07-17T04:38:54.015Z,62.50
2017-07-17T04:41:24.361Z,63.40
2017-07-17T04:43:59.511Z,63.20
2017-07-17T04:46:35.015Z,63.10
2017-07-17T04:49:04.856Z,63.00
2017-07-17T04:51:34.477Z,62.60
2017-07-17T04:54:04.177Z,63.00
2017-07-17T04:56:33.996Z,61.30
2017-07-17T04:59:03.587Z,60.80
2017-07-17T05:01:33.089Z,57.30
2017-07-17T05:04:02.883Z,53.30
2017-07-17T05:06:32.468Z,50.00
2017-07-17T05:09:01.998Z,46.50
2017-07-17T05:11:31.823Z,43.20
2017-07-17T05:14:01.353Z,40.30
2017-07-17T05:16:31.276Z,39.70
2017-07-17T05:19:00.782Z,38.40
2017-07-17T05:21:30.567Z,39.80
2017-07-17T05:24:00.580Z,40.90
2017-07-17T05:26:30.287Z,42.90
2017-07-17T05:28:59.869Z,46.90
2017-07-17T05:31:29.759Z,48.10
2017-07-17T05:33:59.393Z,51.20
2017-07-17T05:36:29.224Z,52.60
2017-07-17T05:38:58.883Z,53.40
2017-07-17T05:41:28.534Z,53.70
2017-07-17T05:43:58.390Z,53.90
2017-07-17T05:46:27.931Z,54.40
2017-07-17T05:48:57.445Z,55.00
2017-07-17T05:51:27.192Z,55.20
2017-07-17T05:53:56.806Z,55.40
2017-07-17T05:56:26.643Z,55.70
2017-07-17T05:58:56.217Z,56.90
2017-07-17T06:01:25.712Z,57.10
2017-07-17T06:03:55.180Z,57.50
2017-07-17T06:06:24.695Z,56.40
2017-07-17T06:08:54.585Z,56.70
2017-07-17T06:11:24.536Z,56.90
2017-07-17T06:13:54.491Z,56.00
2017-07-17T06:16:24.944Z,56.20
2017-07-17T06:21:35.853Z,55.10
2017-07-17T06:24:06.712Z,52.30
2017-07-17T06:26:36.267Z,52.90
2017-07-17T06:29:06.306Z,45.70
2017-07-17T06:34:36.608Z,41.70
2017-07-17T06:37:06.214Z,37.70
2017-07-17T06:39:35.759Z,34.00
2017-07-17T06:42:10.184Z,32.20
2017-07-17T06:44:41.535Z,32.50
2017-07-17T06:47:11.687Z,32.90
2017-07-17T06:49:41.407Z,30.20
2017-07-17T06:52:12.142Z,31.10
2017-07-17T06:54:42.079Z,30.50
2017-07-17T06:57:12.609Z,28.50
2017-07-17T06:59:46.293Z,27.30
2017-07-17T07:02:42.284Z,26.60
2017-07-17T07:05:12.337Z,27.20
2017-07-17T07:07:42.153Z,29.20
2017-07-17T07:10:13.241Z,27.60
2017-07-17T07:12:43.315Z,28.30
2017-07-17T07:15:13.717Z,27.20
2017-07-17T07:17:48.643Z,26.90
2017-07-17T07:20:18.297Z,25.10
2017-07-17T07:22:50.106Z,28.20
2017-07-17T07:25:23.674Z,25.60
2017-07-17T07:27:56.550Z,25.90
2017-07-17T07:30:26.993Z,28.90
2017-07-17T07:32:58.780Z,28.50
2017-07-17T07:35:28.736Z,25.50
2017-07-17T07:37:59.533Z,24.20
2017-07-17T07:40:29.331Z,25.90
2017-07-17T07:45:55.625Z,24.90
2017-07-17T07:48:27.082Z,23.50
2017-07-17T07:50:56.795Z,23.30
2017-07-17T07:53:32.766Z,23.40
2017-07-17T07:56:04.169Z,24.10
2017-07-17T07:58:37.107Z,23.70
2017-07-17T08:01:07.152Z,24.60
2017-07-17T08:03:37.098Z,24.20
2017-07-17T08:06:06.681Z,24.40
2017-07-17T08:08:36.247Z,23.90
2017-07-17T08:11:08.355Z,23.40
2017-07-17T08:13:39.180Z,23.40
2017-07-17T08:16:10.406Z,23.80
2017-07-17T08:18:42.044Z,23.90
2017-07-17T08:21:11.946Z,21.70
2017-07-17T08:23:41.940Z,22.00
2017-07-17T08:26:11.590Z,21.70
2017-07-17T08:28:57.666Z,21.90
2017-07-17T08:31:27.632Z,22.00
2017-07-17T08:33:57.249Z,25.00
2017-07-17T08:36:27.496Z,25.40
2017-07-17T08:39:07.647Z,25.80
2017-07-17T08:41:38.774Z,25.80
2017-07-17T08:44:09.996Z,26.20
2017-07-17T08:46:42.395Z,28.50
2017-07-17T08:49:12.596Z,28.40
2017-07-17T08:51:42.463Z,29.40
2017-07-17T08:54:12.651Z,34.30
2017-07-17T08:59:43.657Z,31.50
2017-07-17T09:02:13.822Z,32.60
2017-07-17T09:04:45.940Z,33.50
2017-07-17T09:07:23.770Z,32.30
2017-07-17T09:09:53.754Z,31.50
2017-07-17T09:12:23.943Z,36.50
2017-07-17T09:21:05.213Z,33.00
2017-07-17T09:23:35.413Z,32.70
2017-07-17T09:26:04.974Z,29.10
2017-07-17T09:28:34.511Z,30.10
2017-07-17T09:31:06.200Z,29.70
2017-07-17T09:33:56.809Z,29.60
2017-07-17T09:36:31.373Z,30.20
2017-07-17T09:39:01.541Z,31.60
2017-07-17T09:41:31.570Z,30.50
2017-07-17T09:44:03.227Z,30.50
2017-07-17T09:46:36.121Z,31.50
2017-07-17T09:49:06.632Z,33.30
2017-07-17T09:51:36.734Z,33.20
2017-07-17T09:54:07.206Z,30.60
2017-07-17T09:56:40.691Z,31.70
2017-07-17T09:59:20.094Z,33.30
2017-07-17T10:01:50.602Z,33.90
2017-07-17T10:04:30.825Z,33.90
2017-07-17T10:07:01.956Z,34.70
2017-07-17T10:09:38.547Z,32.00
2017-07-17T10:12:10.575Z,30.20
2017-07-17T10:14:40.555Z,33.50
2017-07-17T10:17:10.495Z,35.60
2017-07-17T10:19:41.693Z,33.00
2017-07-17T10:22:12.050Z,32.90
2017-07-17T10:24:43.298Z,34.70
2017-07-17T10:27:26.208Z,33.90
2017-07-17T10:30:34.969Z,33.40
2017-07-17T10:33:05.156Z,35.10
2017-07-17T10:35:35.816Z,38.00
2017-07-17T10:38:05.431Z,35.50
2017-07-17T10:40:35.730Z,34.00
2017-07-17T10:43:05.379Z,33.60
2017-07-17T10:45:36.994Z,33.10
2017-07-17T10:48:07.171Z,35.10
2017-07-17T10:50:44.680Z,35.50
2017-07-17T10:53:29.311Z,35.00
2017-07-17T10:55:59.333Z,34.90
2017-07-17T10:58:29.554Z,34.70
2017-07-17T11:00:59.456Z,33.20
2017-07-17T11:03:30.145Z,33.40
2017-07-17T11:06:09.205Z,33.20
2017-07-17T11:08:38.936Z,35.00
2017-07-17T11:11:16.525Z,37.30
2017-07-17T11:16:55.820Z,37.60
2017-07-17T11:19:26.252Z,38.60
2017-07-17T11:21:55.843Z,37.10
2017-07-17T11:24:25.701Z,37.40
2017-07-17T11:26:57.345Z,38.40
2017-07-17T11:29:27.627Z,38.40
2017-07-17T11:32:03.563Z,40.70
2017-07-17T11:34:33.122Z,40.80
2017-07-17T11:37:02.833Z,40.60
2017-07-17T11:39:32.854Z,41.30
2017-07-17T11:42:02.744Z,41.40
2017-07-17T11:44:32.520Z,41.70
2017-07-17T12:00:19.528Z,40.60
2017-07-17T12:02:50.091Z,39.60
2017-07-17T12:07:53.552Z,40.50
2017-07-17T12:10:23.893Z,41.40
2017-07-17T12:12:53.518Z,41.20
2017-07-17T12:15:23.521Z,41.40
2017-07-17T12:17:55.212Z,40.20
2017-07-17T12:20:25.084Z,40.20
2017-07-17T12:25:54.725Z,41.50
2017-07-17T12:28:28.613Z,41.60
2017-07-17T12:30:58.745Z,42.10
2017-07-17T12:33:34.763Z,40.60
2017-07-17T12:36:04.890Z,40.30
2017-07-17T12:41:16.954Z,40.80
2017-07-17T12:43:59.149Z,41.90
2017-07-17T12:51:58.713Z,41.50
2017-07-17T12:54:35.147Z,43.90
2017-07-17T12:57:23.246Z,43.80
2017-07-17T13:00:00.619Z,42.10
2017-07-17T13:02:40.178Z,42.40
2017-07-17T13:05:10.185Z,42.60
2017-07-17T13:07:44.823Z,44.10
2017-07-17T13:10:29.015Z,42.30
2017-07-17T13:13:47.267Z,43.50
2017-07-17T13:16:22.789Z,42.80
2017-07-17T13:19:03.973Z,43.80
2017-07-17T13:21:42.516Z,43.20
2017-07-17T13:24:12.904Z,43.20
2017-07-17T13:26:45.445Z,44.30
2017-07-17T13:29:20.932Z,42.80
2017-07-17T13:31:51.899Z,44.00
2017-07-17T13:34:37.716Z,42.40
2017-07-17T13:37:09.024Z,42.50
2017-07-17T13:42:38.854Z,42.70
2017-07-17T13:49:38.345Z,42.40
2017-07-17T13:52:09.817Z,43.30
2017-07-17T13:54:57.641Z,43.40
2017-07-17T13:57:28.773Z,43.40
2017-07-17T14:00:06.162Z,43.50
2017-07-17T14:02:40.807Z,43.70
2017-07-17T14:05:33.446Z,43.50
2017-07-17T14:08:04.000Z,43.40
2017-07-17T14:13:56.449Z,42.60
2017-07-17T14:16:29.648Z,43.90
2017-07-17T14:19:00.974Z,43.30
2017-07-17T14:21:32.522Z,43.30
2017-07-17T14:24:02.842Z,43.60
2017-07-17T14:26:32.946Z,44.20
2017-07-17T14:29:16.641Z,44.50
2017-07-17T14:31:46.852Z,44.30
2017-07-17T14:34:16.980Z,43.30
2017-07-17T14:36:47.726Z,43.60
2017-07-17T14:39:18.296Z,43.70
2017-07-17T14:42:04.562Z,43.60
2017-07-17T14:44:34.595Z,43.40
2017-07-17T14:47:12.291Z,44.20
2017-07-17T14:49:47.837Z,44.60
2017-07-17T14:52:19.357Z,43.50
2017-07-17T14:54:52.989Z,43.50
2017-07-17T14:57:22.663Z,43.20
2017-07-17T14:59:53.239Z,43.20
2017-07-17T15:02:23.165Z,44.00
2017-07-17T15:04:55.117Z,43.70
2017-07-17T15:07:25.898Z,45.50
2017-07-17T15:09:58.643Z,43.50
2017-07-17T15:12:45.984Z,44.50
2017-07-17T15:15:20.305Z,45.10
2017-07-17T15:17:52.025Z,45.30
2017-07-17T15:20:26.513Z,44.90
2017-07-17T15:22:56.508Z,44.30
2017-07-17T15:25:27.225Z,45.40
2017-07-17T15:28:01.542Z,44.20
2017-07-17T15:30:31.759Z,43.20
2017-07-17T15:33:03.528Z,44.30
2017-07-17T15:35:33.989Z,43.90
2017-07-17T15:38:11.049Z,44.80
2017-07-17T15:40:42.009Z,44.70
2017-07-17T15:43:11.922Z,44.80
2017-07-17T15:45:42.082Z,46.90
2017-07-17T15:48:12.447Z,44.20
2017-07-17T15:50:42.159Z,44.40
2017-07-17T15:53:13.572Z,44.40
2017-07-17T15:55:43.327Z,44.40
2017-07-17T15:58:13.307Z,43.80
2017-07-17T16:00:50.154Z,43.20
2017-07-17T16:03:20.001Z,42.80
2017-07-17T16:05:52.951Z,44.70
2017-07-17T16:08:35.427Z,43.50
2017-07-17T16:11:07.856Z,44.00
2017-07-17T16:16:39.765Z,42.30
2017-07-17T16:19:26.662Z,42.70
2017-07-17T16:22:00.074Z,43.50
2017-07-17T16:24:44.713Z,43.40
2017-07-17T16:27:15.175Z,43.60
2017-07-17T16:29:45.143Z,43.80
2017-07-17T16:32:14.753Z,44.70
2017-07-17T16:34:44.339Z,42.70
2017-07-17T16:37:14.007Z,43.20
2017-07-17T16:39:44.725Z,44.40
2017-07-17T16:42:15.001Z,44.40
2017-07-17T16:44:45.998Z,45.30
2017-07-17T16:47:16.571Z,44.80
2017-07-17T16:49:46.685Z,44.30
2017-07-17T16:52:19.415Z,44.40
2017-07-17T16:54:49.874Z,44.70
2017-07-17T16:57:23.452Z,45.20
2017-07-17T16:59:53.910Z,45.20
2017-07-17T17:02:24.644Z,45.20
2017-07-17T17:04:54.941Z,45.30
2017-07-17T17:07:25.414Z,45.00
2017-07-17T17:11:28.122Z,45.70
2017-07-17T17:17:17.783Z,44.70
2017-07-17T17:19:53.489Z,45.00
2017-07-17T17:22:33.029Z,45.30
2017-07-17T17:25:02.905Z,45.30
2017-07-17T17:27:34.360Z,45.90
2017-07-17T17:30:06.739Z,46.00
2017-07-17T17:32:37.120Z,45.80
2017-07-17T17:35:11.457Z,45.00
2017-07-17T17:37:46.286Z,45.10
2017-07-17T17:40:16.829Z,45.50
2017-07-17T17:42:46.644Z,45.70
2017-07-17T17:45:16.342Z,45.90
2017-07-17T17:47:46.690Z,46.00
2017-07-17T17:50:16.475Z,46.70
2017-07-17T17:52:46.775Z,47.10
2017-07-17T17:55:16.531Z,47.60
2017-07-17T17:57:46.550Z,48.40
2017-07-17T18:00:18.342Z,47.10
2017-07-17T18:02:49.721Z,47.90
2017-07-17T18:08:20.387Z,48.50
2017-07-17T18:10:50.356Z,50.40
2017-07-17T18:13:22.792Z,49.40
2017-07-17T18:15:53.598Z,50.00
2017-07-17T18:18:23.660Z,50.80
2017-07-17T18:20:53.591Z,49.40
2017-07-17T18:23:23.429Z,51.90
2017-07-17T18:25:53.944Z,51.80
2017-07-17T18:28:23.954Z,52.80
2017-07-17T18:30:53.613Z,53.30
2017-07-17T18:33:23.515Z,52.40
2017-07-17T18:35:53.221Z,53.00
2017-07-17T18:38:22.792Z,53.90
2017-07-17T18:40:53.375Z,54.20
2017-07-17T18:43:23.007Z,54.70
2017-07-17T18:45:53.178Z,54.50
2017-07-17T18:48:25.242Z,54.50
2017-07-17T18:50:59.293Z,54.90
2017-07-17T18:56:16.026Z,56.30
2017-07-17T18:59:20.906Z,58.00
2017-07-17T19:01:58.293Z,57.90
2017-07-17T19:04:28.484Z,58.10
2017-07-17T19:06:58.497Z,58.00
2017-07-17T19:09:30.763Z,58.20
2017-07-17T19:12:03.760Z,58.80
2017-07-17T19:14:33.704Z,59.10
2017-07-17T19:17:03.604Z,59.40
2017-07-17T19:19:34.306Z,58.60
2017-07-17T19:22:04.261Z,58.60
2017-07-17T19:24:34.488Z,58.70
2017-07-17T19:27:39.738Z,58.60
2017-07-17T19:30:09.384Z,59.20
2017-07-17T19:32:39.404Z,59.50
2017-07-17T19:35:09.432Z,60.90
2017-07-17T19:37:39.151Z,61.80
2017-07-17T19:40:10.743Z,62.80
2017-07-17T19:42:40.360Z,61.90
2017-07-17T19:45:10.893Z,62.50
2017-07-17T19:47:40.999Z,62.50
2017-07-17T19:50:14.653Z,62.60
2017-07-17T19:52:44.428Z,61.80
2017-07-17T19:55:14.498Z,61.50
2017-07-17T19:57:44.856Z,61.80
2017-07-17T20:00:14.866Z,62.60
2017-07-17T20:02:44.805Z,61.70
2017-07-17T20:05:14.503Z,62.40
2017-07-17T20:07:44.498Z,62.80
2017-07-17T20:10:14.336Z,64.20
2017-07-17T20:12:44.101Z,63.60
2017-07-17T20:15:14.794Z,63.80
2017-07-17T20:17:44.418Z,65.20
2017-07-17T20:20:14.403Z,65.30
2017-07-17T20:22:44.767Z,65.00
2017-07-17T20:25:47.549Z,65.30
2017-07-17T20:28:17.783Z,66.60
2017-07-17T20:30:47.514Z,66.50
2017-07-17T20:33:44.390Z,65.90
2017-07-17T20:36:16.471Z,65.30
2017-07-17T20:38:46.892Z,65.50
2017-07-17T20:41:16.789Z,66.10
2017-07-17T20:43:46.352Z,65.40
2017-07-17T20:46:17.032Z,65.70
2017-07-17T20:48:48.550Z,66.00
2017-07-17T20:51:18.124Z,66.20
2017-07-17T20:53:48.182Z,66.10
2017-07-17T20:56:17.720Z,66.40
2017-07-17T20:58:47.321Z,66.60
2017-07-17T21:01:17.278Z,67.40
2017-07-17T21:03:46.910Z,67.90
2017-07-17T21:06:45.696Z,67.70
2017-07-17T21:09:15.763Z,68.40
2017-07-17T21:11:46.099Z,68.70
2017-07-17T21:14:15.697Z,67.40
2017-07-17T21:16:45.988Z,67.50
2017-07-17T21:19:15.939Z,67.40
2017-07-17T21:21:45.866Z,68.70
2017-07-17T21:24:15.955Z,68.80
2017-07-17T21:27:15.518Z,68.40
2017-07-17T21:29:45.123Z,68.20
2017-07-17T21:32:15.169Z,68.40
2017-07-17T21:34:44.758Z,68.10
2017-07-17T21:37:14.306Z,68.30
2017-07-17T21:39:44.554Z,68.20
2017-07-17T21:42:14.134Z,68.80
2017-07-17T21:44:44.767Z,68.70
2017-07-17T21:47:15.172Z,68.50
2017-07-17T21:49:44.743Z,68.70
2017-07-17T21:52:14.396Z,68.60
2017-07-17T21:54:44.243Z,69.00
2017-07-17T21:57:13.774Z,69.10
2017-07-17T21:59:43.318Z,69.90
2017-07-17T22:02:13.946Z,71.80
2017-07-17T22:04:44.065Z,71.80
2017-07-17T22:07:14.078Z,71.50
2017-07-17T22:09:43.603Z,72.20
2017-07-17T22:12:13.210Z,72.80
2017-07-17T22:14:43.566Z,71.50
2017-07-17T22:17:13.734Z,71.30
2017-07-17T22:19:43.810Z,71.30
2017-07-17T22:22:13.809Z,72.50
2017-07-17T22:24:43.497Z,72.50
2017-07-17T22:27:14.814Z,71.70
2017-07-17T22:29:44.490Z,71.70
2017-07-17T22:32:16.249Z,71.60
2017-07-17T22:34:46.538Z,72.30
2017-07-17T22:37:16.458Z,72.80
2017-07-17T22:39:46.103Z,73.10
2017-07-17T22:42:15.833Z,72.90
2017-07-17T22:44:45.534Z,72.60
2017-07-17T22:47:16.036Z,72.10
2017-07-17T22:49:45.856Z,72.20
2017-07-17T22:52:15.857Z,72.10
2017-07-17T22:54:45.499Z,72.40
2017-07-17T22:57:15.022Z,72.70
2017-07-17T22:59:44.998Z,72.50
2017-07-17T23:02:14.551Z,72.90
2017-07-17T23:04:44.129Z,72.70
2017-07-17T23:07:14.046Z,73.00
2017-07-17T23:09:43.587Z,72.70
2017-07-17T23:12:13.139Z,73.00
2017-07-17T23:14:42.691Z,73.20
2017-07-17T23:17:12.208Z,73.10
2017-07-17T23:19:42.337Z,73.80
2017-07-17T23:23:41.459Z,74.00
2017-07-17T23:26:11.572Z,74.60
2017-07-17T23:28:41.245Z,76.50
2017-07-17T23:31:12.449Z,75.30
2017-07-17T23:33:42.299Z,75.30
2017-07-17T23:36:12.124Z,74.90
2017-07-17T23:38:42.073Z,74.20
2017-07-17T23:41:12.112Z,73.80
2017-07-17T23:43:42.587Z,73.50
2017-07-17T23:46:14.733Z,74.10
2017-07-17T23:48:44.752Z,74.00
2017-07-17T23:51:14.858Z,74.10
2017-07-17T23:53:47.016Z,74.10
2017-07-17T23:56:17.027Z,74.40
2017-07-17T23:58:46.875Z,74.30
